createdAt,value
2019-01-30T00:02:10.838Z,94916.41
2019-01-30T00:04:41.566Z,94918.41
2019-01-30T00:07:12.390Z,94918.25
2019-01-30T00:09:44.383Z,94911.23
2019-01-30T00:12:15.273Z,94913.86
2019-01-30T00:14:46.353Z,94911.69
2019-01-30T00:17:16.706Z,94899.65
2019-01-30T00:19:48.458Z,94888.70
2019-01-30T00:22:19.141Z,94876.20
2019-01-30T00:24:50.078Z,94878.40
2019-01-30T00:27:20.909Z,94883.41
2019-01-30T00:29:51.703Z,94880.81
2019-01-30T00:32:51.785Z,94885.20
2019-01-30T00:35:22.449Z,94882.09
2019-01-30T00:37:53.266Z,94881.61
2019-01-30T00:40:25.003Z,94875.95
2019-01-30T00:42:56.151Z,94865.83
2019-01-30T00:45:26.893Z,94856.70
2019-01-30T00:47:58.103Z,94857.99
2019-01-30T00:50:29.182Z,94848.05
2019-01-30T00:53:00.068Z,94848.16
2019-01-30T00:55:31.407Z,94836.05
2019-01-30T00:58:02.092Z,94833.75
2019-01-30T01:01:07.431Z,94836.37
2019-01-30T01:03:38.257Z,94825.01
2019-01-30T01:06:09.729Z,94820.37
2019-01-30T01:08:40.122Z,94827.13
2019-01-30T01:11:12.017Z,94824.75
2019-01-30T01:13:43.373Z,94810.20
2019-01-30T01:16:14.001Z,94805.98
2019-01-30T01:18:59.217Z,94801.61
2019-01-30T01:21:30.637Z,94800.24
2019-01-30T01:24:01.651Z,94794.05
2019-01-30T01:26:32.924Z,94792.23
2019-01-30T01:29:03.729Z,94783.14
2019-01-30T01:31:34.450Z,94781.95
2019-01-30T01:34:05.371Z,94780.87
2019-01-30T01:36:36.050Z,94781.63
2019-01-30T01:39:09.611Z,94782.28
2019-01-30T01:41:40.370Z,94783.92
2019-01-30T01:44:10.694Z,94780.33
2019-01-30T01:46:41.366Z,94780.36
2019-01-30T01:49:12.181Z,94775.23
2019-01-30T01:52:03.705Z,94779.95
2019-01-30T01:54:36.217Z,94783.05
2019-01-30T01:57:06.887Z,94780.20
2019-01-30T01:59:37.724Z,94779.51
2019-01-30T03:01:58.147Z,94724.27
2019-01-30T03:04:29.185Z,94724.52
2019-01-30T03:06:59.925Z,94722.05
2019-01-30T03:09:30.949Z,94727.81
2019-01-30T03:12:02.315Z,94728.16
2019-01-30T03:14:33.633Z,94733.52
2019-01-30T03:17:04.517Z,94732.67
2019-01-30T03:19:35.212Z,94724.62
2019-01-30T03:22:05.516Z,94725.16
2019-01-30T03:24:40.772Z,94705.33
2019-01-30T03:27:12.514Z,94705.20
2019-01-30T03:29:43.344Z,94707.70
2019-01-30T03:32:14.511Z,94700.58
2019-01-30T03:34:45.815Z,94705.19
2019-01-30T03:37:16.552Z,94699.60
2019-01-30T03:39:47.689Z,94699.20
2019-01-30T03:42:18.194Z,94707.18
2019-01-30T03:44:49.206Z,94720.00
2019-01-30T03:47:19.940Z,94719.25
2019-01-30T03:49:50.296Z,94713.59
2019-01-30T03:52:31.730Z,94721.30
2019-01-30T03:55:03.385Z,94715.02
2019-01-30T03:57:34.124Z,94716.33
2019-01-30T04:00:06.913Z,94714.12
2019-01-30T04:02:38.716Z,94706.69
2019-01-30T04:05:10.486Z,94708.12
2019-01-30T04:07:41.222Z,94711.23
2019-01-30T04:10:15.555Z,94704.30
2019-01-30T04:12:45.902Z,94710.40
2019-01-30T04:15:17.208Z,94705.05
2019-01-30T04:17:48.822Z,94698.80
2019-01-30T04:20:22.484Z,94690.58
2019-01-30T04:22:53.458Z,94692.47
2019-01-30T04:25:30.736Z,94688.04
2019-01-30T04:28:01.891Z,94678.00
2019-01-30T04:30:33.010Z,94684.81
2019-01-30T04:33:03.315Z,94678.20
2019-01-30T04:35:34.000Z,94676.84
2019-01-30T04:38:05.414Z,94672.56
2019-01-30T04:40:36.481Z,94677.38
2019-01-30T04:43:08.242Z,94677.30
2019-01-30T04:45:38.957Z,94679.96
2019-01-30T04:48:09.697Z,94680.13
2019-01-30T04:50:41.464Z,94680.89
2019-01-30T04:53:12.523Z,94679.34
2019-01-30T04:55:43.941Z,94683.67
2019-01-30T04:58:50.409Z,94676.45
2019-01-30T05:01:21.051Z,94681.66
2019-01-30T05:03:52.129Z,94682.25
2019-01-30T05:06:23.326Z,94684.61
2019-01-30T05:08:55.990Z,94680.16
2019-01-30T05:11:27.515Z,94675.53
2019-01-30T05:14:01.438Z,94666.77
2019-01-30T05:16:32.288Z,94671.05
2019-01-30T05:19:02.940Z,94680.39
2019-01-30T05:21:33.698Z,94678.63
2019-01-30T05:24:05.319Z,94678.66
2019-01-30T05:26:36.631Z,94688.91
2019-01-30T05:29:08.436Z,94686.41
2019-01-30T05:31:39.530Z,94683.97
2019-01-30T05:34:10.805Z,94684.07
2019-01-30T05:36:41.759Z,94684.75
2019-01-30T05:39:12.531Z,94684.17
2019-01-30T05:41:47.503Z,94685.14
2019-01-30T05:45:22.410Z,94690.38
2019-01-30T05:47:53.408Z,94708.16
2019-01-30T05:50:25.223Z,94713.78
2019-01-30T05:52:56.849Z,94713.77
2019-01-30T05:55:27.534Z,94720.84
2019-01-30T05:58:00.103Z,94730.64
2019-01-30T06:01:10.166Z,94741.52
2019-01-30T06:04:28.832Z,94754.06
2019-01-30T06:06:59.561Z,94749.66
2019-01-30T06:09:30.479Z,94765.00
2019-01-30T06:12:01.976Z,94770.41
2019-01-30T06:14:32.992Z,94761.89
2019-01-30T06:17:03.685Z,94775.02
2019-01-30T06:19:35.338Z,94761.73
2019-01-30T06:22:06.321Z,94771.27
2019-01-30T06:24:37.793Z,94771.26
2019-01-30T06:27:08.504Z,94777.63
2019-01-30T06:29:39.251Z,94772.61
2019-01-30T06:32:09.963Z,94775.22
2019-01-30T06:34:40.598Z,94771.00
2019-01-30T06:37:11.630Z,94792.14
2019-01-30T06:39:42.303Z,94777.84
2019-01-30T06:43:07.068Z,94783.81
2019-01-30T06:45:38.093Z,94785.31
2019-01-30T06:48:08.845Z,94796.84
2019-01-30T06:50:39.914Z,94791.30
2019-01-30T06:53:10.524Z,94791.11
2019-01-30T06:55:41.562Z,94805.11
2019-01-30T06:58:11.908Z,94797.03
2019-01-30T07:00:42.629Z,94807.64
2019-01-30T07:03:13.379Z,94814.57
2019-01-30T07:05:46.466Z,94814.30
2019-01-30T07:08:17.073Z,94810.24
2019-01-30T07:10:48.493Z,94806.09
2019-01-30T07:13:19.178Z,94808.71
2019-01-30T07:15:49.806Z,94810.11
2019-01-30T07:18:20.457Z,94805.47
2019-01-30T07:20:50.778Z,94805.02
2019-01-30T07:23:21.069Z,94816.50
2019-01-30T07:25:52.659Z,94826.19
2019-01-30T07:28:23.252Z,94818.92
2019-01-30T07:30:53.856Z,94824.95
2019-01-30T07:33:24.103Z,94831.83
2019-01-30T07:35:55.154Z,94832.92
2019-01-30T07:38:25.476Z,94839.64
2019-01-30T07:40:56.096Z,94844.28
2019-01-30T07:43:27.111Z,94850.81
2019-01-30T07:46:12.758Z,94859.80
2019-01-30T07:48:43.841Z,94842.65
2019-01-30T07:51:15.950Z,94846.20
2019-01-30T07:53:46.606Z,94840.69
2019-01-30T07:56:17.629Z,94844.36
2019-01-30T07:58:48.617Z,94850.77
2019-01-30T08:01:22.036Z,94837.44
2019-01-30T08:03:52.147Z,94840.94
2019-01-30T08:06:22.842Z,94840.30
2019-01-30T08:08:53.724Z,94841.11
2019-01-30T08:11:24.822Z,94845.16
2019-01-30T08:14:24.090Z,94843.42
2019-01-30T08:16:54.798Z,94841.73
2019-01-30T08:19:25.553Z,94838.94
2019-01-30T08:21:56.451Z,94844.13
2019-01-30T08:24:28.171Z,94853.74
2019-01-30T08:26:58.977Z,94848.45
2019-01-30T08:29:29.631Z,94857.46
2019-01-30T08:32:00.690Z,94857.51
2019-01-30T08:34:31.355Z,94864.50
2019-01-30T08:37:03.219Z,94871.05
2019-01-30T08:39:34.657Z,94871.13
2019-01-30T08:42:04.978Z,94865.48
2019-01-30T08:44:36.219Z,94868.47
2019-01-30T08:47:07.383Z,94881.09
2019-01-30T08:49:40.324Z,94882.02
2019-01-30T08:52:10.793Z,94886.63
2019-01-30T08:54:42.611Z,94892.94
2019-01-30T08:57:13.715Z,94894.16
2019-01-30T08:59:44.743Z,94885.50
2019-01-30T09:02:15.784Z,94888.03
2019-01-30T09:04:46.882Z,94882.73
2019-01-30T09:07:17.806Z,94882.01
2019-01-30T09:09:48.840Z,94892.80
2019-01-30T09:12:20.270Z,94900.69
2019-01-30T09:14:52.087Z,94908.63
2019-01-30T09:17:23.682Z,94910.50
2019-01-30T09:19:54.366Z,94909.24
2019-01-30T09:22:25.043Z,94913.55
2019-01-30T09:24:56.173Z,94908.95
2019-01-30T09:27:27.228Z,94917.62
2019-01-30T09:29:57.956Z,94916.59
2019-01-30T09:32:28.873Z,94920.70
2019-01-30T09:35:00.238Z,94931.87
2019-01-30T09:37:31.748Z,94935.70
2019-01-30T09:40:02.787Z,94942.23
2019-01-30T09:42:33.891Z,94940.02
2019-01-30T09:45:05.629Z,94950.11
2019-01-30T09:47:36.263Z,94947.22
2019-01-30T09:50:11.141Z,94962.09
2019-01-30T09:52:42.458Z,94954.51
2019-01-30T09:55:14.558Z,94957.60
2019-01-30T09:57:45.032Z,94966.63
2019-01-30T10:00:28.800Z,94968.83
2019-01-30T10:03:01.042Z,94967.84
2019-01-30T10:05:31.788Z,94966.16
2019-01-30T10:08:02.391Z,94973.70
2019-01-30T10:10:35.268Z,94980.63
2019-01-30T10:13:07.432Z,94977.29
2019-01-30T10:15:40.815Z,94981.53
2019-01-30T10:18:14.061Z,94990.68
2019-01-30T10:20:47.237Z,94990.73
2019-01-30T10:23:18.460Z,94996.27
2019-01-30T10:25:49.526Z,94994.01
2019-01-30T10:28:21.199Z,95002.27
2019-01-30T10:30:52.747Z,94998.99
2019-01-30T10:33:23.125Z,95006.23
2019-01-30T10:35:54.241Z,95014.22
2019-01-30T10:38:24.619Z,95021.41
2019-01-30T10:40:56.354Z,95008.22
2019-01-30T10:43:27.642Z,95016.87
2019-01-30T10:45:58.669Z,95022.58
2019-01-30T10:48:29.767Z,95032.06
2019-01-30T10:51:00.853Z,95026.08
2019-01-30T10:53:31.896Z,95021.47
2019-01-30T10:56:02.515Z,95023.47
2019-01-30T10:58:33.196Z,95035.86
2019-01-30T11:01:05.393Z,95039.59
2019-01-30T11:03:36.734Z,95034.77
2019-01-30T11:06:07.809Z,95033.31
2019-01-30T11:08:38.543Z,95032.38
2019-01-30T11:11:09.336Z,95036.15
2019-01-30T11:13:40.122Z,95039.14
2019-01-30T11:16:11.851Z,95032.05
2019-01-30T11:18:42.866Z,95040.08
2019-01-30T11:21:13.222Z,95034.39
2019-01-30T11:23:44.267Z,95042.38
2019-01-30T11:26:14.643Z,95054.81
2019-01-30T11:28:45.238Z,95041.13
2019-01-30T11:31:16.973Z,95044.11
2019-01-30T11:33:48.221Z,95061.16
2019-01-30T11:36:19.567Z,95067.78
2019-01-30T11:38:50.275Z,95058.10
2019-01-30T11:41:21.390Z,95058.50
2019-01-30T11:43:54.025Z,95081.34
2019-01-30T11:46:25.120Z,95070.20
2019-01-30T11:48:56.816Z,95048.55
2019-01-30T11:51:28.404Z,95062.77
2019-01-30T11:53:59.540Z,95076.16
2019-01-30T11:56:30.315Z,95075.29
2019-01-30T11:59:01.731Z,95086.70
2019-01-30T12:01:32.655Z,95086.69
2019-01-30T12:04:03.599Z,95085.70
2019-01-30T12:06:35.058Z,95083.73
2019-01-30T12:09:08.631Z,95095.05
2019-01-30T12:11:39.300Z,95080.81
2019-01-30T12:14:09.651Z,95093.34
2019-01-30T12:16:41.018Z,95092.73
2019-01-30T12:19:11.764Z,95084.70
2019-01-30T12:21:42.422Z,95102.13
2019-01-30T12:24:13.845Z,95069.72
2019-01-30T12:26:44.506Z,95111.72
2019-01-30T12:29:17.177Z,95109.16
2019-01-30T12:31:48.257Z,95098.33
2019-01-30T12:34:28.057Z,95103.90
2019-01-30T12:36:51.723Z,95108.12
2019-01-30T12:39:22.120Z,95099.94
2019-01-30T12:41:53.101Z,95115.05
2019-01-30T12:44:23.791Z,95109.74
2019-01-30T12:46:54.454Z,95123.66
2019-01-30T12:49:25.636Z,95123.37
2019-01-30T12:51:56.326Z,95125.36
2019-01-30T12:54:26.951Z,95121.86
2019-01-30T12:56:59.668Z,95114.17
2019-01-30T12:59:30.372Z,95125.39
2019-01-30T13:02:01.803Z,95128.45
2019-01-30T13:04:38.831Z,95127.84
2019-01-30T13:07:05.963Z,95118.89
2019-01-30T13:09:36.324Z,95121.94
2019-01-30T13:12:07.757Z,95116.83
2019-01-30T13:14:38.817Z,95119.14
2019-01-30T13:17:09.122Z,95133.05
2019-01-30T13:19:39.813Z,95114.72
2019-01-30T13:22:10.133Z,95121.58
2019-01-30T13:24:40.505Z,95117.23
2019-01-30T13:27:10.857Z,95121.33
2019-01-30T13:29:42.118Z,95120.02
2019-01-30T13:32:12.791Z,95125.70
2019-01-30T13:34:48.940Z,95118.66
2019-01-30T13:37:16.588Z,95132.27
2019-01-30T13:39:48.215Z,95131.70
2019-01-30T13:42:18.887Z,95125.20
2019-01-30T13:44:49.584Z,95140.85
2019-01-30T13:47:20.923Z,95147.34
2019-01-30T13:49:51.931Z,95138.70
2019-01-30T13:52:22.889Z,95153.66
2019-01-30T13:54:53.622Z,95150.21
2019-01-30T13:57:24.618Z,95154.52
2019-01-30T13:59:54.932Z,95165.02
2019-01-30T14:02:26.004Z,95153.77
2019-01-30T14:04:59.496Z,95156.23
2019-01-30T14:07:29.823Z,95154.08
2019-01-30T14:10:01.528Z,95164.58
2019-01-30T14:12:32.695Z,95173.22
2019-01-30T14:15:03.159Z,95179.89
2019-01-30T14:17:33.920Z,95183.50
2019-01-30T14:20:05.155Z,95174.31
2019-01-30T14:22:35.477Z,95181.77
2019-01-30T14:25:07.439Z,95195.83
2019-01-30T14:27:38.585Z,95201.30
2019-01-30T14:30:16.302Z,95205.10
2019-01-30T14:32:47.232Z,95225.09
2019-01-30T14:35:29.866Z,95204.48
2019-01-30T14:38:00.551Z,95202.68
2019-01-30T14:40:31.869Z,95210.86
2019-01-30T14:43:03.286Z,95205.70
2019-01-30T14:45:34.257Z,95211.55
2019-01-30T14:48:04.886Z,95210.84
2019-01-30T14:51:19.056Z,95203.08
2019-01-30T14:53:50.354Z,95209.08
2019-01-30T14:56:41.156Z,95216.72
2019-01-30T14:59:12.461Z,95212.27
2019-01-30T15:01:43.155Z,95220.86
2019-01-30T15:04:14.864Z,95224.21
2019-01-30T15:06:45.610Z,95222.77
2019-01-30T15:09:16.288Z,95215.37
2019-01-30T15:11:47.037Z,95217.98
2019-01-30T15:14:21.376Z,95236.11
2019-01-30T15:16:52.770Z,95229.16
2019-01-30T15:19:29.408Z,95238.00
2019-01-30T15:22:02.720Z,95237.11
2019-01-30T15:24:33.727Z,95244.80
2019-01-30T15:27:04.889Z,95234.63
2019-01-30T15:29:36.635Z,95240.83
2019-01-30T15:32:07.208Z,95251.33
2019-01-30T15:34:38.999Z,95251.98
2019-01-30T15:37:09.887Z,95250.44
2019-01-30T15:39:40.957Z,95262.67
2019-01-30T15:42:15.902Z,95261.06
2019-01-30T15:44:57.385Z,95256.45
2019-01-30T15:47:31.000Z,95265.23
2019-01-30T15:50:01.692Z,95273.17
2019-01-30T15:52:48.995Z,95275.89
2019-01-30T15:55:20.072Z,95269.03
2019-01-30T15:58:00.927Z,95283.17
2019-01-30T16:01:05.219Z,95294.38
2019-01-30T16:03:43.808Z,95297.16
2019-01-30T16:06:15.334Z,95298.13
2019-01-30T16:08:48.682Z,95302.17
2019-01-30T16:11:35.206Z,95297.50
2019-01-30T16:14:05.538Z,95298.69
2019-01-30T16:16:36.672Z,95304.17
2019-01-30T16:19:07.778Z,95308.75
2019-01-30T16:21:45.979Z,95310.00
2019-01-30T16:24:16.302Z,95318.39
2019-01-30T16:26:47.723Z,95320.01
2019-01-30T16:29:18.904Z,95307.97
2019-01-30T16:32:00.106Z,95315.84
2019-01-30T16:34:31.209Z,95317.72
2019-01-30T16:37:02.559Z,95317.44
2019-01-30T16:39:32.874Z,95316.13
2019-01-30T16:42:04.556Z,95326.61
2019-01-30T16:44:35.594Z,95316.89
2019-01-30T16:47:05.888Z,95324.67
2019-01-30T16:49:36.861Z,95322.03
2019-01-30T16:52:09.267Z,95323.91
2019-01-30T16:54:40.342Z,95320.13
2019-01-30T16:57:11.321Z,95324.06
2019-01-30T16:59:42.039Z,95323.83
2019-01-30T17:02:32.289Z,95328.59
2019-01-30T17:05:03.789Z,95337.41
2019-01-30T17:07:34.112Z,95337.90
2019-01-30T17:10:08.937Z,95337.80
2019-01-30T17:12:39.670Z,95340.27
2019-01-30T17:15:20.759Z,95340.48
2019-01-30T17:17:51.045Z,95348.59
2019-01-30T17:20:24.597Z,95359.41
2019-01-30T17:22:56.176Z,95362.22
2019-01-30T17:25:27.031Z,95360.83
2019-01-30T17:27:57.899Z,95364.56
2019-01-30T17:30:43.058Z,95369.41
2019-01-30T17:33:14.096Z,95373.24
2019-01-30T17:35:47.000Z,95375.16
2019-01-30T17:38:17.641Z,95378.23
2019-01-30T17:40:48.065Z,95384.55
2019-01-30T17:43:18.368Z,95390.21
2019-01-30T17:45:49.422Z,95388.39
2019-01-30T17:48:20.085Z,95394.38
2019-01-30T17:50:51.075Z,95394.67
2019-01-30T17:53:22.139Z,95397.05
2019-01-30T17:55:53.471Z,95399.34
2019-01-30T17:58:24.186Z,95395.80
2019-01-30T18:01:00.666Z,95392.27
2019-01-30T18:03:31.324Z,95401.40
2019-01-30T18:06:01.624Z,95402.90
2019-01-30T18:08:32.356Z,95408.31
2019-01-30T18:11:03.642Z,95405.97
2019-01-30T18:13:53.810Z,95409.53
2019-01-30T18:16:26.872Z,95413.73
2019-01-30T18:18:58.405Z,95414.70
2019-01-30T18:21:32.074Z,95413.70
2019-01-30T18:24:02.524Z,95420.83
2019-01-30T18:26:33.508Z,95422.88
2019-01-30T18:29:04.553Z,95421.98
2019-01-30T18:31:36.827Z,95424.36
2019-01-30T18:34:07.183Z,95417.78
2019-01-30T18:36:41.108Z,95429.07
2019-01-30T18:39:11.506Z,95428.66
2019-01-30T18:41:42.254Z,95432.27
2019-01-30T18:44:30.946Z,95438.61
2019-01-30T18:47:06.048Z,95430.48
2019-01-30T18:49:46.012Z,95433.59
2019-01-30T18:52:32.392Z,95429.72
2019-01-30T18:55:03.749Z,95425.95
2019-01-30T18:57:34.938Z,95419.75
2019-01-30T19:00:10.614Z,95417.89
2019-01-30T19:02:51.499Z,95421.36
2019-01-30T19:05:24.410Z,95421.95
2019-01-30T19:07:55.080Z,95420.41
2019-01-30T19:10:26.484Z,95416.67
2019-01-30T19:12:57.191Z,95416.47
2019-01-30T19:15:28.168Z,95422.00
2019-01-30T19:17:59.628Z,95418.14
2019-01-30T19:20:34.145Z,95411.47
2019-01-30T19:23:07.080Z,95421.76
2019-01-30T19:25:37.672Z,95420.09
2019-01-30T19:28:09.181Z,95424.00
2019-01-30T19:30:45.280Z,95426.65
2019-01-30T19:33:16.697Z,95426.77
2019-01-30T19:35:55.830Z,95425.72
2019-01-30T19:38:27.162Z,95424.19
2019-01-30T19:40:58.253Z,95420.16
2019-01-30T19:43:32.220Z,95422.76
2019-01-30T19:46:03.911Z,95420.72
2019-01-30T19:48:41.944Z,95420.05
2019-01-30T19:51:20.758Z,95420.11
2019-01-30T19:53:59.639Z,95411.00
2019-01-30T19:56:42.136Z,95412.55
2019-01-30T19:59:23.588Z,95413.41
2019-01-30T20:02:02.235Z,95416.94
2019-01-30T20:04:40.898Z,95415.27
2019-01-30T20:07:25.473Z,95417.36
2019-01-30T20:10:28.689Z,95413.03
2019-01-30T20:13:03.811Z,95412.80
2019-01-30T20:15:39.562Z,95410.64
2019-01-30T20:18:23.873Z,95409.57
2019-01-30T20:21:06.659Z,95413.48
2019-01-30T20:23:49.254Z,95410.49
2019-01-30T20:26:33.645Z,95403.88
2019-01-30T20:29:09.391Z,95410.91
2019-01-30T20:31:54.878Z,95406.31
2019-01-30T20:34:32.846Z,95412.51
2019-01-30T20:37:12.446Z,95412.73
2019-01-30T20:39:46.889Z,95414.23
2019-01-30T20:42:22.271Z,95416.55
2019-01-30T20:44:57.498Z,95416.03
2019-01-30T20:47:47.948Z,95415.09
2019-01-30T20:50:55.423Z,95415.30
2019-01-30T20:53:42.623Z,95414.98
2019-01-30T20:56:15.351Z,95421.12
2019-01-30T20:58:53.497Z,95415.88
2019-01-30T21:01:26.177Z,95415.53
2019-01-30T21:03:59.196Z,95412.64
2019-01-30T21:06:39.916Z,95412.05
2019-01-30T21:09:24.886Z,95410.83
2019-01-30T21:12:45.602Z,95411.90
2019-01-30T21:15:35.819Z,95411.00
2019-01-30T21:18:19.678Z,95409.36
2019-01-30T21:20:56.756Z,95409.95
2019-01-30T21:23:45.822Z,95408.37
2019-01-30T21:26:27.483Z,95409.25
2019-01-30T21:29:11.772Z,95413.88
2019-01-30T21:32:04.059Z,95407.51
2019-01-30T21:34:37.484Z,95406.50
2019-01-30T21:37:34.006Z,95404.81
2019-01-30T21:40:15.414Z,95405.50
2019-01-30T21:43:17.817Z,95407.89
2019-01-30T21:45:59.856Z,95398.19
2019-01-30T21:48:39.937Z,95397.91
2019-01-30T21:51:24.605Z,95395.02
2019-01-30T21:54:00.932Z,95394.77
2019-01-30T21:56:33.242Z,95394.66
2019-01-30T21:59:12.640Z,95388.95
2019-01-30T22:01:50.506Z,95387.36
2019-01-30T22:04:33.699Z,95386.11
2019-01-30T22:07:05.150Z,95388.84
2019-01-30T22:09:37.847Z,95378.14
2019-01-30T22:12:21.317Z,95385.13
2019-01-30T22:15:01.538Z,95384.92
2019-01-30T22:17:36.636Z,95381.45
2019-01-30T22:20:12.966Z,95377.08
2019-01-30T22:22:46.588Z,95373.30
2019-01-30T22:25:24.573Z,95371.31
2019-01-30T22:27:55.746Z,95369.67
2019-01-30T22:30:35.288Z,95370.41
2019-01-30T22:33:07.210Z,95371.28
2019-01-30T22:35:41.820Z,95371.64
2019-01-30T22:38:13.117Z,95365.77
2019-01-30T22:40:44.407Z,95365.03
2019-01-30T22:43:15.861Z,95364.75
2019-01-30T22:45:46.538Z,95366.26
2019-01-30T22:48:17.854Z,95367.29
2019-01-30T22:50:48.167Z,95361.71
2019-01-30T22:53:19.186Z,95363.23
2019-01-30T22:55:49.820Z,95359.98
2019-01-30T22:58:21.537Z,95356.48
2019-01-30T23:01:47.086Z,95357.49
2019-01-30T23:05:16.222Z,95348.77
2019-01-30T23:08:29.650Z,95346.80
2019-01-30T23:11:38.248Z,95338.13
2019-01-30T23:14:21.451Z,95340.77
2019-01-30T23:17:28.195Z,95335.83
2019-01-30T23:20:54.450Z,95324.27
2019-01-30T23:24:34.336Z,95320.66
2019-01-30T23:27:32.217Z,95316.69
2019-01-30T23:30:54.754Z,95315.66
2019-01-30T23:34:43.800Z,95305.16
2019-01-30T23:37:41.143Z,95295.00
2019-01-30T23:40:32.092Z,95293.39
2019-01-30T23:43:59.419Z,95293.86
2019-01-30T23:47:23.823Z,95287.92
2019-01-30T23:50:45.968Z,95285.68
2019-01-30T23:54:11.565Z,95285.52
2019-01-30T23:57:36.801Z,95278.47
